createdAt,value
2023-11-01T00:00:53.658Z,38.46
2023-11-01T00:04:55.023Z,37.74
2023-11-01T00:08:57.589Z,38.05
2023-11-01T00:12:58.912Z,38.06
2023-11-01T00:17:00.335Z,37.93
2023-11-01T00:21:01.720Z,37.90
2023-11-01T00:25:03.673Z,37.99
2023-11-01T00:29:05.370Z,39.15
2023-11-01T00:33:06.854Z,38.02
2023-11-01T00:37:08.338Z,37.99
2023-11-01T00:41:09.721Z,38.97
2023-11-01T00:45:11.092Z,39.29
2023-11-01T00:49:12.463Z,39.32
2023-11-01T00:53:13.970Z,40.12
2023-11-01T00:57:15.431Z,38.46
2023-11-01T01:01:16.804Z,39.47
2023-11-01T01:05:18.507Z,39.08
2023-11-01T01:09:19.870Z,40.34
2023-11-01T01:13:21.255Z,39.62
2023-11-01T01:17:22.686Z,39.54
2023-11-01T01:21:24.033Z,39.92
2023-11-01T01:25:25.339Z,41.42
2023-11-01T01:29:26.779Z,40.01
2023-11-01T01:33:28.229Z,40.74
2023-11-01T01:37:29.969Z,40.54
2023-11-01T01:41:31.431Z,40.70
2023-11-01T01:45:32.813Z,39.73
2023-11-01T01:49:40.131Z,39.93
2023-11-01T01:53:48.268Z,40.05
2023-11-01T01:57:50.216Z,39.66
2023-11-01T02:01:53.496Z,40.34
2023-11-01T02:05:55.135Z,40.93
2023-11-01T02:09:56.466Z,41.07
2023-11-01T02:13:58.060Z,40.75
2023-11-01T02:17:59.568Z,40.92
2023-11-01T02:22:01.141Z,40.75
2023-11-01T02:26:03.567Z,39.82
2023-11-01T02:30:06.269Z,39.93
2023-11-01T02:34:09.389Z,39.86
2023-11-01T02:38:12.471Z,40.39
2023-11-01T02:42:13.834Z,40.17
2023-11-01T02:46:15.217Z,40.13
2023-11-01T02:50:18.142Z,39.88
2023-11-01T02:54:19.595Z,39.67
2023-11-01T02:58:24.662Z,39.66
2023-11-01T03:02:26.189Z,40.13
2023-11-01T03:06:27.605Z,40.04
2023-11-01T03:10:28.966Z,40.51
2023-11-01T03:14:30.362Z,40.25
2023-11-01T03:18:31.796Z,43.93
2023-11-01T03:22:34.056Z,42.90
2023-11-01T03:26:35.454Z,44.27
2023-11-01T03:30:36.803Z,44.29
2023-11-01T03:34:39.096Z,43.09
2023-11-01T03:38:44.783Z,44.23
2023-11-01T03:42:46.250Z,43.25
2023-11-01T03:46:47.654Z,43.61
2023-11-01T03:50:49.084Z,45.14
2023-11-01T03:54:50.599Z,43.78
2023-11-01T03:58:52.947Z,45.10
2023-11-01T04:02:54.397Z,43.19
2023-11-01T04:06:55.829Z,43.13
2023-11-01T04:10:57.364Z,44.25
2023-11-01T04:14:58.731Z,42.70
2023-11-01T04:19:00.924Z,43.03
2023-11-01T04:23:02.255Z,42.87
2023-11-01T04:27:03.742Z,44.25
2023-11-01T04:31:05.134Z,42.50
2023-11-01T04:35:15.644Z,43.22
2023-11-01T04:39:17.097Z,44.63
2023-11-01T04:43:21.293Z,44.15
2023-11-01T04:47:22.808Z,43.28
2023-11-01T04:51:24.557Z,43.04
2023-11-01T04:55:25.949Z,43.52
2023-11-01T04:59:31.477Z,42.21
2023-11-01T05:03:36.283Z,42.21
2023-11-01T05:07:37.800Z,43.34
2023-11-01T05:11:39.521Z,44.17
2023-11-01T05:15:41.804Z,42.83
2023-11-01T05:19:43.265Z,43.36
2023-11-01T05:23:45.916Z,42.74
2023-11-01T05:27:47.325Z,42.72
2023-11-01T05:31:48.682Z,43.18
2023-11-01T05:35:50.133Z,42.11
2023-11-01T05:39:51.515Z,42.61
2023-11-01T05:43:52.880Z,43.50
2023-11-01T05:47:54.831Z,41.77
2023-11-01T05:51:56.369Z,41.39
2023-11-01T05:56:04.874Z,42.96
2023-11-01T06:00:11.759Z,42.97
2023-11-01T06:04:13.214Z,43.52
2023-11-01T06:08:14.598Z,42.86
2023-11-01T06:12:16.241Z,42.24
2023-11-01T06:16:18.032Z,42.70
2023-11-01T06:20:19.562Z,42.40
2023-11-01T06:24:20.902Z,41.94
2023-11-01T06:28:22.352Z,42.01
2023-11-01T06:32:23.731Z,41.68
2023-11-01T06:36:25.179Z,42.69
2023-11-01T06:40:26.546Z,41.96
2023-11-01T06:44:28.003Z,43.17
2023-11-01T06:48:29.438Z,42.93
2023-11-01T06:52:30.752Z,41.66
2023-11-01T06:56:32.284Z,41.85
2023-11-01T07:00:34.900Z,41.93
2023-11-01T07:04:36.301Z,41.46
2023-11-01T07:08:38.852Z,41.27
2023-11-01T07:12:40.427Z,40.77
2023-11-01T07:16:43.416Z,40.75
2023-11-01T07:20:44.846Z,41.21
2023-11-01T07:24:46.300Z,40.57
2023-11-01T07:28:47.658Z,40.85
2023-11-01T07:32:49.155Z,41.04
2023-11-01T07:36:50.581Z,40.70
2023-11-01T07:40:51.944Z,40.36
2023-11-01T07:44:53.709Z,40.55
2023-11-01T07:48:55.132Z,39.90
2023-11-01T07:52:56.456Z,40.42
2023-11-01T07:56:57.801Z,39.60
2023-11-01T08:01:00.110Z,39.75
2023-11-01T08:05:01.462Z,40.38
2023-11-01T08:09:02.858Z,39.62
2023-11-01T08:13:04.465Z,39.34
2023-11-01T08:17:05.853Z,39.01
2023-11-01T08:21:07.317Z,38.74
2023-11-01T08:25:09.741Z,39.32
2023-11-01T08:29:11.116Z,39.10
2023-11-01T08:33:12.613Z,40.18
2023-11-01T08:37:13.967Z,40.47
2023-11-01T08:41:17.493Z,38.55
2023-11-01T08:45:19.022Z,38.93
2023-11-01T08:49:21.371Z,39.26
2023-11-01T08:53:23.955Z,38.87
2023-11-01T08:57:28.292Z,38.02
2023-11-01T09:01:29.902Z,38.82
2023-11-01T09:05:31.391Z,37.74
2023-11-01T09:09:33.799Z,38.24
2023-11-01T09:13:35.395Z,39.31
2023-11-01T09:17:36.807Z,37.91
2023-11-01T09:21:39.164Z,39.74
2023-11-01T09:25:40.796Z,37.86
2023-11-01T09:29:42.197Z,36.97
2023-11-01T09:33:49.976Z,38.19
2023-11-01T09:37:52.024Z,37.03
2023-11-01T09:42:02.246Z,37.67
2023-11-01T09:46:04.918Z,36.84
2023-11-01T09:50:07.738Z,37.23
2023-11-01T09:54:12.652Z,38.03
2023-11-01T09:58:19.239Z,36.16
2023-11-01T10:02:20.818Z,36.06
2023-11-01T10:06:23.034Z,36.38
2023-11-01T10:10:25.191Z,35.23
2023-11-01T10:14:29.170Z,36.14
2023-11-01T10:18:30.780Z,37.87
2023-11-01T10:22:33.687Z,35.79
2023-11-01T10:26:36.323Z,35.36
2023-11-01T10:30:37.687Z,35.67
2023-11-01T10:34:39.166Z,36.14
2023-11-01T10:38:42.343Z,35.39
2023-11-01T10:42:45.386Z,35.84
2023-11-01T10:46:46.866Z,35.91
2023-11-01T10:50:48.339Z,34.52
2023-11-01T10:54:52.047Z,35.17
2023-11-01T10:58:59.971Z,35.37
2023-11-01T11:03:12.588Z,35.69
2023-11-01T11:07:28.105Z,35.54
2023-11-01T11:11:29.479Z,34.98
2023-11-01T11:15:49.718Z,34.21
2023-11-01T11:20:06.228Z,33.80
2023-11-01T11:24:32.757Z,34.99
2023-11-01T11:28:38.365Z,34.25
2023-11-01T11:32:40.032Z,34.35
2023-11-01T11:37:05.029Z,35.62
2023-11-01T11:41:12.603Z,34.65
2023-11-01T11:45:25.342Z,35.20
2023-11-01T11:49:29.980Z,34.54
2023-11-01T11:53:35.721Z,34.94
2023-11-01T11:57:37.171Z,34.95
2023-11-01T12:01:39.416Z,34.17
2023-11-01T12:05:41.177Z,35.10
2023-11-01T12:09:51.182Z,33.61
2023-11-01T12:13:52.577Z,35.00
2023-11-01T12:18:11.280Z,34.28
2023-11-01T12:22:12.849Z,35.13
2023-11-01T12:26:14.203Z,34.77
2023-11-01T12:30:22.659Z,33.96
2023-11-01T12:34:23.982Z,33.39
2023-11-01T12:38:25.465Z,33.54
2023-11-01T12:42:29.347Z,35.02
2023-11-01T12:46:30.995Z,33.35
2023-11-01T12:50:37.598Z,34.24
2023-11-01T12:54:44.738Z,33.96
2023-11-01T12:58:46.073Z,33.93
2023-11-01T13:02:47.635Z,33.60
2023-11-01T13:06:49.425Z,35.37
2023-11-01T13:10:52.141Z,32.61
2023-11-01T13:14:53.794Z,34.55
2023-11-01T13:18:55.242Z,35.03
2023-11-01T13:22:56.672Z,35.10
2023-11-01T13:26:58.030Z,35.87
2023-11-01T13:30:59.520Z,34.29
2023-11-01T13:35:01.111Z,35.35
2023-11-01T13:39:02.997Z,36.77
2023-11-01T13:43:04.472Z,35.48
2023-11-01T13:47:05.830Z,34.21
2023-11-01T13:51:07.998Z,36.14
2023-11-01T13:55:10.585Z,34.17
2023-11-01T13:59:12.070Z,36.63
2023-11-01T14:03:14.662Z,35.94
2023-11-01T14:07:16.379Z,37.27
2023-11-01T14:11:18.803Z,35.75
2023-11-01T14:15:20.263Z,36.67
2023-11-01T14:19:21.624Z,34.89
2023-11-01T14:23:23.157Z,34.90
2023-11-01T14:27:24.526Z,35.63
2023-11-01T14:31:26.061Z,36.05
2023-11-01T14:35:27.673Z,35.52
2023-11-01T14:39:29.057Z,35.66
2023-11-01T14:43:30.414Z,35.69
2023-11-01T14:47:32.315Z,37.33
2023-11-01T14:51:33.753Z,36.24
2023-11-01T14:55:35.340Z,37.38
2023-11-01T14:59:36.853Z,36.89
2023-11-01T15:03:41.669Z,36.61
2023-11-01T15:07:43.096Z,35.11
2023-11-01T15:11:46.127Z,35.85
2023-11-01T15:15:47.496Z,37.18
2023-11-01T15:19:49.518Z,35.34
2023-11-01T15:23:50.966Z,36.43
2023-11-01T15:27:52.344Z,36.85
2023-11-01T15:31:54.480Z,36.83
2023-11-01T15:35:55.936Z,36.27
2023-11-01T15:39:57.343Z,35.86
2023-11-01T15:43:58.726Z,35.11
2023-11-01T15:48:00.161Z,36.83
2023-11-01T15:52:02.961Z,35.96
2023-11-01T15:56:05.235Z,35.30
2023-11-01T16:00:07.490Z,35.72
2023-11-01T16:04:09.000Z,34.95
2023-11-01T16:08:10.494Z,35.04
2023-11-01T16:12:11.858Z,34.02
2023-11-01T16:16:13.561Z,33.97
2023-11-01T16:20:15.098Z,34.21
2023-11-01T16:24:16.585Z,33.46
2023-11-01T16:28:17.916Z,33.51
2023-11-01T16:32:19.400Z,32.72
2023-11-01T16:36:20.900Z,33.27
2023-11-01T16:40:22.382Z,32.62
2023-11-01T16:44:23.784Z,32.51
2023-11-01T16:48:25.257Z,32.12
2023-11-01T16:52:27.290Z,32.51
2023-11-01T16:56:28.791Z,33.55
2023-11-01T17:00:30.125Z,31.63
2023-11-01T17:04:34.040Z,33.18
2023-11-01T17:08:36.057Z,32.40
2023-11-01T17:12:37.464Z,32.69
2023-11-01T17:16:38.882Z,32.02
2023-11-01T17:20:40.314Z,31.48
2023-11-01T17:24:41.681Z,32.31
2023-11-01T17:28:44.517Z,31.74
2023-11-01T17:32:45.940Z,33.04
2023-11-01T17:36:47.532Z,33.17
2023-11-01T17:40:59.216Z,32.35
2023-11-01T17:45:00.867Z,33.52
2023-11-01T17:49:03.062Z,32.08
2023-11-01T17:53:04.802Z,31.92
2023-11-01T17:57:06.792Z,32.60
2023-11-01T18:01:08.403Z,32.52
2023-11-01T18:05:31.944Z,31.62
2023-11-01T18:09:33.700Z,33.20
2023-11-01T18:13:36.845Z,33.53
2023-11-01T18:17:38.278Z,32.18
2023-11-01T18:21:39.718Z,31.71
2023-11-01T18:26:00.889Z,31.97
2023-11-01T18:30:02.240Z,33.12
2023-11-01T18:34:05.506Z,32.42
2023-11-01T18:38:11.211Z,32.78
2023-11-01T18:42:36.173Z,32.60
2023-11-01T18:46:37.643Z,32.81
2023-11-01T18:50:39.033Z,33.74
2023-11-01T18:54:42.125Z,33.58
2023-11-01T18:58:43.451Z,32.79
2023-11-01T19:03:03.741Z,33.19
2023-11-01T19:07:09.290Z,32.83
2023-11-01T19:11:10.712Z,34.53
2023-11-01T19:15:57.933Z,33.88
2023-11-01T19:19:59.314Z,33.54
2023-11-01T19:24:02.170Z,33.68
2023-11-01T19:28:05.545Z,33.04
2023-11-01T19:32:07.147Z,34.63
2023-11-01T19:36:14.140Z,34.71
2023-11-01T19:40:17.748Z,33.09
2023-11-01T19:44:19.955Z,34.83
2023-11-01T19:48:24.955Z,34.69
2023-11-01T19:52:26.333Z,35.90
2023-11-01T19:56:27.973Z,35.67
2023-11-01T20:00:30.985Z,35.03
2023-11-01T20:04:32.955Z,35.37
2023-11-01T20:08:35.090Z,35.38
2023-11-01T20:12:37.303Z,36.54
2023-11-01T20:16:38.680Z,36.83
2023-11-01T20:20:40.677Z,35.81
2023-11-01T20:24:43.215Z,36.21
2023-11-01T20:28:44.619Z,36.41
2023-11-01T20:32:46.307Z,36.29
2023-11-01T20:36:47.715Z,36.15
2023-11-01T20:40:49.312Z,36.01
2023-11-01T20:44:51.389Z,36.44
2023-11-01T20:48:52.717Z,37.34
2023-11-01T20:52:54.119Z,35.92
2023-11-01T20:56:55.664Z,36.30
2023-11-01T21:01:00.292Z,36.98
2023-11-01T21:05:02.200Z,36.72
2023-11-01T21:09:06.459Z,36.60
2023-11-01T21:13:08.900Z,37.58
2023-11-01T21:17:10.911Z,37.85
2023-11-01T21:21:12.335Z,37.12
2023-11-01T21:25:14.126Z,36.59
2023-11-01T21:29:15.617Z,35.94
2023-11-01T21:33:21.898Z,36.87
2023-11-01T21:37:23.532Z,36.99
2023-11-01T21:41:24.926Z,36.42
2023-11-01T21:45:47.379Z,36.46
2023-11-01T21:49:48.854Z,36.09
2023-11-01T21:53:50.323Z,37.82
2023-11-01T21:57:54.588Z,37.06
2023-11-01T22:01:56.084Z,36.91
2023-11-01T22:05:57.609Z,36.67
2023-11-01T22:10:00.116Z,37.39
2023-11-01T22:14:30.777Z,37.24
2023-11-01T22:18:32.319Z,37.06
2023-11-01T22:22:36.782Z,36.76
2023-11-01T22:26:38.332Z,36.00
2023-11-01T22:30:39.799Z,36.92
2023-11-01T22:34:41.704Z,36.51
2023-11-01T22:38:43.026Z,35.78
2023-11-01T22:42:45.544Z,35.83
2023-11-01T22:46:46.859Z,36.40
2023-11-01T22:50:48.214Z,35.28
2023-11-01T22:54:49.614Z,37.14
2023-11-01T22:58:51.028Z,35.08
2023-11-01T23:02:52.744Z,36.32
2023-11-01T23:06:54.156Z,37.82
2023-11-01T23:10:55.511Z,37.14
2023-11-01T23:14:56.845Z,36.71
2023-11-01T23:18:58.595Z,36.26
2023-11-01T23:22:59.990Z,36.89
2023-11-01T23:27:05.904Z,37.55
2023-11-01T23:31:11.361Z,37.29
2023-11-01T23:35:15.796Z,38.02
2023-11-01T23:39:31.126Z,38.09
2023-11-01T23:43:34.043Z,37.36
2023-11-01T23:47:58.542Z,37.47
2023-11-01T23:52:00.061Z,37.85
2023-11-01T23:56:02.821Z,36.92
